Terminal Aerodrome Forecast
Issued by NWS Albuquerque, NM

Home | Current Version | Previous Version | Text Only | Print | Product List | Glossary On
Versions: 1 2 3 4 5 6 7 8 9 10 11 12
000
FTUS45 KABQ 221100 RRA
TAFABQ
TAF
KABQ 221140Z 2212/2312 28007KT P6SM SCT060 BKN200
     FM221600 31015G25KT P6SM FEW050 SCT120 SCT180
     FM222100 32023G34KT P6SM SCT070 SCT110 BKN140
     FM230230 33018G31KT P6SM VCSH SCT040 BKN090=

USA.gov is the U.S. government's official web portal to all federal, state and local government web resources and services.